Buffalo Niagara International Airport Buffalo US
ICAO: KBUF
IATA: BUF
Category: Large
Scheduled Services: Yes

Elevation: 728 ft
TransAlt. 18000 ft.

Airport Communications:
APP/DEP:126.15
ATIS:135.35
CLNC DEL:124.7
GND:121.9
RDO:122.6
TWR:120.5

KBUF Zoom In..

If you have problems with the map follow the link
https://www.worldairports.se/pages/airport.php?
ICAO=KBUF

Runways:

(A) RW 05 length 8829 ft width 150 ft
ILS 108.50 / hdg 55

(B) RW 14 length 7161 ft width 150 ft
---- / hdg 138

(C) RW 23 length 8829 ft width 150 ft
ILS 111.30 / hdg 235

(D) RW 32 length 7161 ft width 150 ft
ILS 109.95 / hdg 318

Location; KBUF
Day. 21 / Time. 05.54 Zulu
* Altimeter: 29.88
* Temperature: 04° c. 39.2°f.
* Wind from: 340° Speed 10 kn.
Dewpoint: -02° c.
Visibility: 10 Statute Miles.
Clouds: Broken 4700 ft.
Clouds: Broken 6000 ft.

KBUF 210554Z 34010KT 10SM BKN047 BKN060 04/M02 A2988 RMK AO2 SLP123 60012 T00391017 100


Wind From 340°
Speed 10 kn.

 
 
jpsmedia.com for Web Design worldairports.se 2018   terms of use